createdAt,value
2019-04-22T00:00:06.719Z,21.36
2019-04-22T00:02:11.338Z,21.33
2019-04-22T00:04:16.233Z,21.32
2019-04-22T00:06:30.723Z,21.33
2019-04-22T00:08:35.788Z,21.31
2019-04-22T00:10:39.709Z,21.19
2019-04-22T00:12:42.285Z,21.15
2019-04-22T00:14:33.761Z,21.12
2019-04-22T00:19:01.392Z,21.15
2019-04-22T00:20:52.693Z,21.17
2019-04-22T00:22:44.398Z,21.16
2019-04-22T00:24:56.223Z,21.19
2019-04-22T00:27:00.282Z,21.20
2019-04-22T00:28:59.306Z,21.21
2019-04-22T00:30:54.887Z,21.07
2019-04-22T00:33:07.837Z,21.18
2019-04-22T00:35:13.258Z,21.17
2019-04-22T00:37:17.215Z,21.15
2019-04-22T00:39:21.376Z,21.13
2019-04-22T00:41:23.441Z,21.10
2019-04-22T00:43:25.878Z,21.11
2019-04-22T00:45:26.856Z,21.14
2019-04-22T00:47:27.979Z,21.15
2019-04-22T00:51:29.710Z,21.17
2019-04-22T00:53:30.079Z,21.15
2019-04-22T00:55:33.765Z,21.14
2019-04-22T00:57:35.527Z,21.14
2019-04-22T00:59:28.726Z,21.16
2019-04-22T01:01:41.046Z,21.17
2019-04-22T01:03:44.505Z,21.16
2019-04-22T01:05:42.222Z,21.16
2019-04-22T01:07:44.587Z,21.14
2019-04-22T01:09:46.428Z,21.12
2019-04-22T01:11:47.227Z,21.09
2019-04-22T01:13:44.241Z,21.06
2019-04-22T01:15:48.534Z,21.04
2019-04-22T01:17:52.467Z,21.02
2019-04-22T01:21:52.445Z,20.99
2019-04-22T01:23:52.209Z,20.98
2019-04-22T01:25:49.557Z,20.95
2019-04-22T01:27:48.835Z,20.94
2019-04-22T01:29:46.878Z,21.03
2019-04-22T01:31:40.018Z,21.08
2019-04-22T01:33:45.788Z,21.13
2019-04-22T01:36:04.656Z,21.17
2019-04-22T01:37:59.772Z,20.91
2019-04-22T01:40:09.894Z,21.22
2019-04-22T01:42:24.453Z,21.20
2019-04-22T01:46:18.385Z,21.24
2019-04-22T01:48:21.165Z,21.24
2019-04-22T01:50:24.065Z,21.21
2019-04-22T01:52:20.338Z,21.19
2019-04-22T01:54:31.809Z,21.16
2019-04-22T01:56:27.212Z,21.12
2019-04-22T01:58:21.842Z,21.12
2019-04-22T02:00:25.171Z,21.13
2019-04-22T02:02:30.365Z,21.18
2019-04-22T02:06:39.132Z,21.29
2019-04-22T02:08:37.886Z,21.33
2019-04-22T02:10:41.486Z,21.34
2019-04-22T02:12:41.074Z,21.36
2019-04-22T02:14:39.544Z,21.43
2019-04-22T02:16:43.169Z,21.46
2019-04-22T02:18:44.842Z,21.48
2019-04-22T02:20:42.959Z,21.50
2019-04-22T02:23:00.442Z,21.53
2019-04-22T02:24:53.899Z,21.57
2019-04-22T02:27:06.240Z,21.55
2019-04-22T02:31:16.179Z,21.59
2019-04-22T02:33:11.443Z,21.58
2019-04-22T02:36:56.482Z,21.53
2019-04-22T02:44:58.557Z,21.54
2019-04-22T02:51:16.867Z,21.58
2019-04-22T02:53:30.147Z,21.63
2019-04-22T02:55:15.490Z,21.61
2019-04-22T02:57:31.931Z,21.62
2019-04-22T02:59:27.912Z,21.63
2019-04-22T03:01:36.917Z,21.64
2019-04-22T03:03:41.800Z,21.61
2019-04-22T03:05:27.391Z,21.60
2019-04-22T03:07:25.969Z,21.60
2019-04-22T03:09:28.389Z,21.62
2019-04-22T03:13:37.803Z,21.67
2019-04-22T03:15:30.507Z,21.65
2019-04-22T03:30:08.784Z,21.40
2019-04-22T03:34:20.504Z,21.36
2019-04-22T03:35:55.730Z,21.37
2019-04-22T03:37:53.237Z,21.35
2019-04-22T03:40:07.310Z,21.34
2019-04-22T03:44:10.214Z,21.35
2019-04-22T03:45:45.816Z,21.36
2019-04-22T03:50:17.603Z,21.40
2019-04-22T03:54:12.297Z,21.39
2019-04-22T03:57:57.330Z,21.10
2019-04-22T04:00:21.567Z,21.40
2019-04-22T04:06:18.037Z,21.36
2019-04-22T04:08:21.965Z,21.35
2019-04-22T04:10:27.830Z,21.33
2019-04-22T04:12:42.141Z,21.30
2019-04-22T04:14:26.911Z,21.26
2019-04-22T04:18:26.565Z,21.20
2019-04-22T04:22:41.463Z,21.14
2019-04-22T04:24:48.156Z,21.11
2019-04-22T04:30:31.529Z,21.14
2019-04-22T04:32:51.334Z,21.15
2019-04-22T04:36:42.185Z,21.25
2019-04-22T04:38:45.710Z,21.28
2019-04-22T04:40:41.884Z,21.33
2019-04-22T04:42:47.953Z,21.38
2019-04-22T04:49:00.409Z,21.41
2019-04-22T04:51:12.254Z,21.43
2019-04-22T04:55:13.704Z,21.46
2019-04-22T04:57:17.413Z,21.52
2019-04-22T04:59:05.011Z,21.62
2019-04-22T05:02:58.397Z,21.73
2019-04-22T05:05:16.809Z,21.72
2019-04-22T05:07:09.168Z,21.68
2019-04-22T05:09:14.705Z,21.66
2019-04-22T05:13:12.328Z,21.65
2019-04-22T05:15:21.070Z,21.66
2019-04-22T05:17:15.994Z,21.67
2019-04-22T05:19:15.715Z,21.66
2019-04-22T05:21:16.334Z,21.65
2019-04-22T05:23:16.728Z,21.63
2019-04-22T05:25:19.312Z,21.62
2019-04-22T05:27:19.984Z,21.64
2019-04-22T05:29:24.516Z,21.66
2019-04-22T05:31:24.653Z,21.67
2019-04-22T05:33:21.673Z,21.66
2019-04-22T05:35:23.022Z,21.68
2019-04-22T05:37:30.932Z,21.69
2019-04-22T05:39:21.610Z,21.68
2019-04-22T05:41:31.978Z,21.65
2019-04-22T05:43:27.426Z,21.62
2019-04-22T05:45:31.415Z,21.58
2019-04-22T05:47:37.089Z,21.54
2019-04-22T05:49:29.943Z,21.51
2019-04-22T05:51:36.961Z,21.49
2019-04-22T05:53:35.605Z,21.48
2019-04-22T05:55:41.575Z,21.46
2019-04-22T05:57:40.301Z,21.47
2019-04-22T05:59:48.656Z,21.47
2019-04-22T06:01:55.040Z,21.46
2019-04-22T06:03:56.492Z,21.45
2019-04-22T06:06:00.780Z,21.42
2019-04-22T06:07:47.306Z,21.39
2019-04-22T06:09:49.253Z,21.39
2019-04-22T06:11:50.934Z,21.43
2019-04-22T06:13:51.722Z,21.43
2019-04-22T06:15:53.003Z,21.42
2019-04-22T06:18:02.996Z,21.43
2019-04-22T06:19:58.905Z,21.45
2019-04-22T06:21:55.713Z,21.47
2019-04-22T06:24:08.239Z,21.52
2019-04-22T06:26:16.158Z,21.53
2019-04-22T06:28:20.430Z,21.54
2019-04-22T06:30:09.689Z,21.59
2019-04-22T06:32:23.110Z,21.60
2019-04-22T06:36:21.011Z,21.58
2019-04-22T06:38:30.404Z,21.55
2019-04-22T06:40:24.657Z,21.55
2019-04-22T06:42:21.787Z,21.55
2019-04-22T06:46:20.420Z,21.67
2019-04-22T06:50:24.166Z,21.57
2019-04-22T06:52:22.391Z,21.63
2019-04-22T06:54:28.330Z,21.63
2019-04-22T06:56:27.746Z,21.63
2019-04-22T06:58:33.385Z,21.61
2019-04-22T07:00:32.365Z,21.55
2019-04-22T07:02:45.118Z,21.76
2019-04-22T07:04:33.770Z,21.64
2019-04-22T07:06:41.630Z,21.50
2019-04-22T07:09:07.917Z,21.40
2019-04-22T07:10:45.116Z,21.33
2019-04-22T07:12:46.961Z,21.26
2019-04-22T07:14:47.253Z,21.25
2019-04-22T07:16:44.189Z,21.22
2019-04-22T07:18:49.875Z,21.19
2019-04-22T07:20:51.096Z,21.17
2019-04-22T07:22:51.346Z,21.15
2019-04-22T07:24:55.988Z,20.98
2019-04-22T07:26:52.779Z,21.12
2019-04-22T07:28:56.446Z,21.09
2019-04-22T07:31:01.997Z,21.07
2019-04-22T07:33:14.479Z,20.90
2019-04-22T07:35:01.106Z,21.03
2019-04-22T07:37:09.537Z,20.40
2019-04-22T07:39:04.458Z,19.41
2019-04-22T07:40:59.475Z,19.20
2019-04-22T07:43:18.779Z,18.89
2019-04-22T07:45:12.047Z,19.48
2019-04-22T07:49:32.244Z,20.56
2019-04-22T07:51:15.563Z,20.89
2019-04-22T07:53:19.906Z,21.12
2019-04-22T07:55:13.392Z,21.27
2019-04-22T07:57:32.711Z,21.37
2019-04-22T07:59:26.830Z,21.35
2019-04-22T08:03:28.982Z,21.50
2019-04-22T08:07:33.083Z,21.61
2019-04-22T08:09:41.400Z,21.64
2019-04-22T08:11:50.818Z,21.65
2019-04-22T08:13:38.280Z,21.65
2019-04-22T08:15:42.026Z,21.66
2019-04-22T08:19:44.652Z,21.68
2019-04-22T08:21:42.608Z,21.71
2019-04-22T08:23:43.302Z,21.74
2019-04-22T08:25:42.622Z,21.75
2019-04-22T08:27:43.616Z,21.76
2019-04-22T08:29:53.476Z,21.79
2019-04-22T08:31:54.769Z,21.80
2019-04-22T08:34:12.069Z,21.81
2019-04-22T08:36:06.075Z,21.70
2019-04-22T08:37:57.716Z,21.72
2019-04-22T08:40:04.197Z,21.75
2019-04-22T08:41:50.967Z,21.76
2019-04-22T08:44:02.573Z,21.76
2019-04-22T08:46:06.106Z,21.77
2019-04-22T08:48:00.969Z,21.79
2019-04-22T08:50:07.761Z,21.80
2019-04-22T08:52:11.026Z,21.79
2019-04-22T08:54:11.870Z,21.79
2019-04-22T08:58:25.577Z,21.76
2019-04-22T09:00:14.717Z,21.77
2019-04-22T09:02:23.045Z,21.78
2019-04-22T09:04:14.625Z,21.64
2019-04-22T09:08:18.675Z,21.67
2019-04-22T09:10:25.253Z,21.65
2019-04-22T09:12:26.496Z,21.69
2019-04-22T09:14:26.156Z,21.72
2019-04-22T09:16:32.046Z,21.73
2019-04-22T09:18:32.941Z,21.74
2019-04-22T09:20:28.150Z,21.74
2019-04-22T09:22:29.983Z,21.74
2019-04-22T09:24:34.264Z,21.73
2019-04-22T09:26:36.040Z,21.73
2019-04-22T09:28:37.718Z,21.73
2019-04-22T09:30:41.551Z,21.61
2019-04-22T09:32:52.398Z,21.47
2019-04-22T09:34:39.845Z,21.38
2019-04-22T09:36:45.459Z,21.38
2019-04-22T09:38:43.738Z,21.34
2019-04-22T09:40:50.082Z,21.25
2019-04-22T09:42:50.489Z,21.18
2019-04-22T09:44:47.757Z,21.13
2019-04-22T09:50:57.504Z,21.03
2019-04-22T09:52:54.740Z,21.04
2019-04-22T09:55:00.183Z,20.68
2019-04-22T09:57:00.149Z,20.87
2019-04-22T09:59:13.774Z,20.81
2019-04-22T10:01:03.033Z,20.80
2019-04-22T10:03:06.847Z,20.87
2019-04-22T10:05:07.618Z,20.92
2019-04-22T10:07:13.131Z,20.97
2019-04-22T10:11:13.109Z,21.23
2019-04-22T10:13:12.849Z,21.37
2019-04-22T10:15:13.771Z,21.54
2019-04-22T10:17:15.488Z,21.71
2019-04-22T10:19:16.776Z,21.84
2019-04-22T10:21:31.838Z,21.92
2019-04-22T10:23:20.319Z,21.96
2019-04-22T10:25:28.011Z,22.00
2019-04-22T10:27:24.351Z,22.05
2019-04-22T10:29:24.671Z,22.08
2019-04-22T10:31:34.506Z,22.11
2019-04-22T10:33:23.929Z,22.15
2019-04-22T10:35:09.303Z,22.16
2019-04-22T10:37:11.273Z,22.17
2019-04-22T10:39:08.596Z,22.21
2019-04-22T10:41:10.449Z,22.21
2019-04-22T10:43:11.638Z,22.23
2019-04-22T10:45:14.465Z,22.23
2019-04-22T10:47:15.937Z,22.25
2019-04-22T10:49:18.106Z,22.22
2019-04-22T10:51:18.999Z,22.26
2019-04-22T10:53:19.941Z,22.27
2019-04-22T10:55:21.531Z,22.28
2019-04-22T10:57:23.166Z,22.28
2019-04-22T10:59:24.814Z,22.29
2019-04-22T11:01:27.545Z,22.26
2019-04-22T11:03:28.403Z,22.19
2019-04-22T11:05:30.265Z,22.12
2019-04-22T11:07:39.730Z,22.07
2019-04-22T11:09:40.471Z,22.03
2019-04-22T11:11:46.729Z,22.00
2019-04-22T11:13:37.795Z,21.97
2019-04-22T11:15:38.080Z,21.98
2019-04-22T11:17:39.735Z,21.96
2019-04-22T11:19:41.583Z,21.93
2019-04-22T11:21:44.613Z,21.92
2019-04-22T11:23:44.872Z,21.90
2019-04-22T11:25:47.836Z,21.90
2019-04-22T11:27:49.297Z,21.91
2019-04-22T11:29:49.825Z,21.92
2019-04-22T11:31:52.524Z,21.90
2019-04-22T11:33:54.337Z,21.93
2019-04-22T11:35:55.594Z,21.94
2019-04-22T11:37:57.050Z,21.97
2019-04-22T11:40:09.169Z,22.01
2019-04-22T11:42:00.493Z,22.05
2019-04-22T11:44:03.107Z,22.06
2019-04-22T11:46:05.096Z,22.06
2019-04-22T11:48:05.552Z,22.07
2019-04-22T11:50:08.067Z,22.06
2019-04-22T11:52:10.868Z,22.06
2019-04-22T11:54:10.619Z,22.04
2019-04-22T11:56:13.067Z,21.89
2019-04-22T11:58:14.773Z,22.04
2019-04-22T12:00:16.687Z,22.04
2019-04-22T12:02:18.054Z,22.04
2019-04-22T12:04:20.022Z,22.03
2019-04-22T12:06:20.225Z,22.04
2019-04-22T12:08:22.815Z,22.05
2019-04-22T12:10:33.277Z,22.05
2019-04-22T12:12:25.604Z,22.07
2019-04-22T12:14:27.749Z,22.07
2019-04-22T12:16:29.669Z,22.12
2019-04-22T12:18:31.253Z,22.10
2019-04-22T12:20:32.984Z,22.11
2019-04-22T12:22:33.914Z,22.10
2019-04-22T12:24:36.383Z,22.11
2019-04-22T12:26:37.938Z,22.13
2019-04-22T12:28:39.251Z,22.13
2019-04-22T12:30:41.515Z,22.14
2019-04-22T12:32:41.703Z,22.17
2019-04-22T12:34:43.711Z,22.17
2019-04-22T12:36:44.956Z,22.04
2019-04-22T12:38:47.471Z,22.18
2019-04-22T12:40:55.331Z,22.18
2019-04-22T12:42:51.377Z,22.18
2019-04-22T12:44:51.585Z,22.16
2019-04-22T12:46:54.324Z,22.15
2019-04-22T12:48:56.224Z,22.14
2019-04-22T12:50:58.474Z,22.15
2019-04-22T12:53:04.841Z,22.16
2019-04-22T12:54:59.828Z,22.17
2019-04-22T12:57:01.722Z,22.01
2019-04-22T12:59:03.864Z,22.16
2019-04-22T13:01:04.784Z,22.13
2019-04-22T13:03:07.269Z,22.13
2019-04-22T13:05:08.189Z,22.20
2019-04-22T13:07:09.768Z,22.15
2019-04-22T13:09:12.628Z,22.12
2019-04-22T13:11:17.965Z,22.08
2019-04-22T13:13:15.410Z,22.07
2019-04-22T13:15:16.390Z,22.05
2019-04-22T13:17:18.969Z,22.03
2019-04-22T13:19:22.599Z,22.01
2019-04-22T13:21:22.562Z,21.99
2019-04-22T13:23:22.955Z,21.98
2019-04-22T13:25:27.010Z,21.96
2019-04-22T13:27:26.883Z,21.93
2019-04-22T13:29:27.982Z,21.92
2019-04-22T13:31:30.881Z,21.90
2019-04-22T13:33:32.705Z,21.88
2019-04-22T13:35:33.887Z,21.84
2019-04-22T13:37:35.022Z,21.83
2019-04-22T13:39:36.760Z,21.81
2019-04-22T13:41:46.331Z,21.79
2019-04-22T13:43:40.936Z,21.78
2019-04-22T13:45:41.130Z,21.75
2019-04-22T13:48:06.357Z,21.73
2019-04-22T13:50:21.873Z,21.70
2019-04-22T13:52:20.745Z,21.69
2019-04-22T13:54:44.541Z,21.67
2019-04-22T13:56:15.554Z,21.66
2019-04-22T13:58:02.653Z,21.64
2019-04-22T13:59:57.650Z,21.66
2019-04-22T14:01:56.475Z,21.66
2019-04-22T14:03:58.749Z,21.65
2019-04-22T14:06:00.686Z,21.34
2019-04-22T14:08:02.598Z,21.65
2019-04-22T14:10:02.677Z,21.67
2019-04-22T14:12:06.196Z,21.67
2019-04-22T14:14:06.890Z,21.67
2019-04-22T14:16:08.850Z,21.73
2019-04-22T14:18:08.945Z,22.19
2019-04-22T14:20:10.918Z,22.21
2019-04-22T14:22:13.680Z,21.89
2019-04-22T14:24:14.309Z,22.46
2019-04-22T14:26:15.547Z,22.81
2019-04-22T14:28:19.360Z,22.88
2019-04-22T14:30:18.901Z,22.73
2019-04-22T14:32:25.361Z,22.52
2019-04-22T14:34:22.062Z,22.44
2019-04-22T14:36:23.648Z,22.46
2019-04-22T14:38:25.920Z,22.71
2019-04-22T14:40:28.689Z,22.69
2019-04-22T14:42:52.229Z,22.64
2019-04-22T14:45:20.561Z,22.65
2019-04-22T14:47:03.488Z,22.67
2019-04-22T14:49:01.327Z,22.83
2019-04-22T14:50:55.908Z,22.73
2019-04-22T14:52:58.166Z,22.88
2019-04-22T14:54:51.653Z,22.80
2019-04-22T14:56:40.466Z,22.76
2019-04-22T14:58:42.766Z,22.67
2019-04-22T15:00:44.314Z,22.50
2019-04-22T15:02:46.035Z,22.67
2019-04-22T15:04:48.031Z,22.67
2019-04-22T15:06:50.286Z,22.64
2019-04-22T15:08:51.234Z,22.66
2019-04-22T15:10:51.848Z,22.73
2019-04-22T15:12:56.714Z,22.95
2019-04-22T15:14:55.479Z,23.14
2019-04-22T15:17:13.041Z,23.20
2019-04-22T15:19:13.673Z,22.84
2019-04-22T15:21:14.910Z,22.47
2019-04-22T15:23:16.874Z,22.33
2019-04-22T15:25:18.742Z,22.27
2019-04-22T15:27:20.319Z,22.24
2019-04-22T15:29:21.480Z,22.19
2019-04-22T15:31:23.674Z,22.13
2019-04-22T15:33:25.651Z,22.13
2019-04-22T15:35:27.261Z,22.12
2019-04-22T15:37:28.272Z,21.95
2019-04-22T15:39:31.307Z,21.90
2019-04-22T15:41:32.572Z,21.97
2019-04-22T15:43:35.118Z,21.98
2019-04-22T15:45:34.979Z,21.91
2019-04-22T15:47:37.406Z,21.94
2019-04-22T15:49:38.180Z,22.09
2019-04-22T15:51:40.860Z,22.43
2019-04-22T15:53:41.226Z,22.79
2019-04-22T15:55:42.887Z,22.98
2019-04-22T15:57:45.675Z,23.21
2019-04-22T16:00:03.805Z,23.23
2019-04-22T16:01:48.619Z,23.19
2019-04-22T16:03:50.334Z,23.25
2019-04-22T16:05:52.203Z,23.28
2019-04-22T16:07:54.901Z,23.34
2019-04-22T16:09:55.095Z,23.38
2019-04-22T16:12:09.442Z,23.40
2019-04-22T16:13:58.330Z,23.39
2019-04-22T16:16:00.654Z,23.36
2019-04-22T16:18:03.343Z,23.31
2019-04-22T16:20:03.689Z,23.25
2019-04-22T16:22:09.360Z,23.38
2019-04-22T16:24:09.068Z,23.21
2019-04-22T16:26:20.194Z,22.57
2019-04-22T16:28:21.613Z,22.31
2019-04-22T16:30:23.509Z,22.75
2019-04-22T16:32:25.438Z,22.95
2019-04-22T16:34:27.220Z,22.97
2019-04-22T16:36:29.016Z,22.83
2019-04-22T16:38:31.008Z,22.76
2019-04-22T16:40:32.582Z,22.45
2019-04-22T16:42:41.309Z,22.30
2019-04-22T16:44:36.434Z,22.22
2019-04-22T16:46:37.443Z,22.15
2019-04-22T16:48:38.267Z,22.13
2019-04-22T16:50:42.806Z,22.08
2019-04-22T16:52:41.835Z,22.07
2019-04-22T16:54:44.490Z,22.04
2019-04-22T16:56:45.764Z,21.98
2019-04-22T16:58:46.672Z,22.03
2019-04-22T17:00:49.687Z,21.94
2019-04-22T17:03:04.898Z,21.97
2019-04-22T17:05:09.384Z,21.77
2019-04-22T17:07:11.220Z,22.06
2019-04-22T17:09:14.177Z,22.43
2019-04-22T17:11:13.657Z,22.54
2019-04-22T17:13:20.738Z,22.89
2019-04-22T17:15:18.573Z,22.76
2019-04-22T17:17:18.462Z,22.43
2019-04-22T17:19:21.531Z,22.22
2019-04-22T17:21:21.811Z,22.19
2019-04-22T17:23:23.445Z,22.17
2019-04-22T17:25:26.486Z,22.28
2019-04-22T17:27:26.789Z,22.39
2019-04-22T17:29:28.368Z,22.41
2019-04-22T17:31:31.051Z,22.44
2019-04-22T17:33:32.784Z,22.44
2019-04-22T17:35:34.047Z,22.50
2019-04-22T17:37:37.303Z,22.46
2019-04-22T17:39:49.200Z,22.48
2019-04-22T17:41:55.362Z,22.50
2019-04-22T17:44:04.859Z,22.47
2019-04-22T17:46:07.333Z,22.26
2019-04-22T17:48:19.447Z,22.25
2019-04-22T17:50:20.277Z,22.54
2019-04-22T17:52:21.096Z,22.62
2019-04-22T17:54:19.187Z,22.71
2019-04-22T17:56:27.949Z,22.79
2019-04-22T17:58:29.334Z,22.84
2019-04-22T18:00:25.469Z,22.88
2019-04-22T18:02:25.016Z,22.91
2019-04-22T18:04:10.478Z,22.97
2019-04-22T18:06:26.828Z,22.98
2019-04-22T18:08:36.637Z,23.23
2019-04-22T18:10:35.647Z,23.16
2019-04-22T18:12:44.211Z,22.65
2019-04-22T18:16:43.459Z,22.91
2019-04-22T18:18:43.609Z,23.01
2019-04-22T18:20:39.459Z,23.04
2019-04-22T18:22:39.599Z,23.03
2019-04-22T18:24:40.598Z,23.05
2019-04-22T18:26:48.254Z,23.10
2019-04-22T18:28:54.068Z,22.98
2019-04-22T18:30:44.622Z,22.95
2019-04-22T18:32:50.688Z,22.92
2019-04-22T18:34:44.558Z,22.94
2019-04-22T18:36:54.131Z,23.06
2019-04-22T18:39:04.743Z,23.13
2019-04-22T18:40:59.663Z,23.04
2019-04-22T18:43:07.396Z,23.00
2019-04-22T18:45:12.756Z,23.02
2019-04-22T18:47:01.331Z,23.02
2019-04-22T18:49:06.864Z,22.98
2019-04-22T18:51:24.947Z,22.98
2019-04-22T18:53:30.085Z,22.99
2019-04-22T18:55:26.809Z,23.04
2019-04-22T18:57:27.341Z,23.08
2019-04-22T18:59:18.480Z,23.13
2019-04-22T19:01:13.889Z,22.76
2019-04-22T19:03:21.660Z,22.64
2019-04-22T19:05:26.525Z,22.64
2019-04-22T19:07:42.406Z,22.59
2019-04-22T19:09:48.349Z,22.39
2019-04-22T19:11:52.175Z,22.38
2019-04-22T19:15:54.370Z,22.75
2019-04-22T19:17:55.157Z,22.88
2019-04-22T19:19:56.042Z,22.91
2019-04-22T19:21:55.847Z,22.93
2019-04-22T19:23:58.453Z,22.91
2019-04-22T19:25:59.083Z,22.94
2019-04-22T19:28:10.130Z,22.94
2019-04-22T19:30:07.479Z,22.94
2019-04-22T19:32:01.957Z,22.98
2019-04-22T19:34:04.581Z,23.01
2019-04-22T19:36:10.970Z,22.96
2019-04-22T19:37:59.871Z,22.45
2019-04-22T19:40:30.344Z,22.45
2019-04-22T19:42:21.909Z,22.68
2019-04-22T19:44:16.002Z,22.43
2019-04-22T19:46:16.018Z,22.40
2019-04-22T19:48:30.766Z,22.27
2019-04-22T19:50:23.202Z,21.96
2019-04-22T19:52:24.518Z,21.80
2019-04-22T19:54:19.219Z,21.72
2019-04-22T19:56:17.598Z,21.75
2019-04-22T19:58:24.106Z,21.71
2019-04-22T20:00:22.894Z,21.66
2019-04-22T20:02:33.087Z,21.66
2019-04-22T20:04:40.021Z,21.65
2019-04-22T20:06:33.543Z,21.95
2019-04-22T20:08:35.236Z,22.37
2019-04-22T20:10:40.199Z,22.72
2019-04-22T20:12:39.853Z,22.86
2019-04-22T20:14:41.582Z,22.91
2019-04-22T20:16:39.949Z,22.98
2019-04-22T20:18:51.924Z,23.02
2019-04-22T20:20:54.064Z,23.09
2019-04-22T20:22:44.903Z,23.13
2019-04-22T20:24:43.393Z,23.13
2019-04-22T20:26:56.493Z,23.18
2019-04-22T20:28:52.487Z,23.09
2019-04-22T20:30:56.208Z,23.20
2019-04-22T20:32:52.591Z,23.06
2019-04-22T20:35:04.382Z,22.71
2019-04-22T20:38:59.410Z,23.22
2019-04-22T20:41:01.401Z,23.15
2019-04-22T20:43:10.471Z,23.06
2019-04-22T20:45:10.325Z,23.10
2019-04-22T20:47:10.585Z,23.13
2019-04-22T20:49:11.671Z,23.12
2019-04-22T20:51:12.476Z,23.12
2019-04-22T20:53:18.965Z,23.13
2019-04-22T20:55:13.663Z,23.10
2019-04-22T20:57:15.363Z,23.18
2019-04-22T20:59:18.069Z,22.61
2019-04-22T21:01:11.641Z,22.26
2019-04-22T21:03:13.664Z,22.32
2019-04-22T21:05:22.137Z,22.26
2019-04-22T21:07:23.803Z,22.18
2019-04-22T21:09:27.312Z,22.15
2019-04-22T21:11:29.683Z,22.10
2019-04-22T21:13:22.896Z,22.04
2019-04-22T21:15:36.930Z,22.02
2019-04-22T21:17:36.605Z,21.98
2019-04-22T21:19:41.792Z,21.94
2019-04-22T21:21:40.903Z,21.89
2019-04-22T21:23:33.956Z,21.83
2019-04-22T21:25:34.067Z,21.76
2019-04-22T21:27:45.335Z,21.76
2019-04-22T21:29:40.596Z,21.72
2019-04-22T21:31:48.248Z,21.69
2019-04-22T21:33:48.768Z,21.66
2019-04-22T21:36:01.665Z,21.61
2019-04-22T21:37:57.876Z,21.57
2019-04-22T21:39:46.424Z,21.53
2019-04-22T21:41:53.081Z,21.51
2019-04-22T21:43:59.545Z,21.48
2019-04-22T21:46:04.531Z,21.44
2019-04-22T21:48:18.229Z,21.46
2019-04-22T21:50:26.120Z,21.47
2019-04-22T21:52:07.955Z,21.47
2019-04-22T21:54:10.038Z,21.49
2019-04-22T21:56:25.390Z,21.51
2019-04-22T21:58:27.668Z,21.51
2019-04-22T22:00:37.460Z,21.50
2019-04-22T22:04:24.803Z,21.48
2019-04-22T22:06:23.558Z,21.44
2019-04-22T22:08:35.146Z,21.44
2019-04-22T22:10:33.905Z,21.42
2019-04-22T22:12:39.383Z,21.40
2019-04-22T22:14:31.677Z,21.38
2019-04-22T22:16:32.026Z,21.36
2019-04-22T22:18:34.972Z,21.38
2019-04-22T22:20:50.944Z,21.40
2019-04-22T22:24:45.172Z,21.40
2019-04-22T22:26:54.260Z,21.40
2019-04-22T22:30:55.360Z,21.36
2019-04-22T22:32:55.117Z,21.35
2019-04-22T22:34:56.876Z,21.33
2019-04-22T22:36:50.603Z,21.28
2019-04-22T22:38:56.157Z,21.30
2019-04-22T22:40:41.562Z,21.30
2019-04-22T22:42:44.457Z,21.51
2019-04-22T22:44:46.780Z,21.43
2019-04-22T22:46:59.022Z,21.38
2019-04-22T22:49:14.973Z,21.35
2019-04-22T22:51:04.289Z,21.37
2019-04-22T22:55:10.748Z,21.42
2019-04-22T22:59:18.008Z,21.49
2019-04-22T23:01:19.889Z,21.48
2019-04-22T23:03:40.009Z,21.47
2019-04-22T23:05:26.028Z,21.46
2019-04-22T23:07:22.739Z,21.44
2019-04-22T23:09:22.600Z,21.14
2019-04-22T23:11:34.417Z,21.40
2019-04-22T23:15:25.715Z,21.37
2019-04-22T23:17:16.213Z,21.36
2019-04-22T23:19:11.094Z,21.38
2019-04-22T23:21:19.343Z,21.39
2019-04-22T23:23:36.007Z,21.42
2019-04-22T23:25:34.006Z,21.39
2019-04-22T23:27:51.431Z,21.39
2019-04-22T23:29:47.028Z,21.37
2019-04-22T23:31:46.928Z,21.35
2019-04-22T23:33:54.657Z,21.35
2019-04-22T23:36:06.389Z,21.36
2019-04-22T23:38:13.676Z,21.38
2019-04-22T23:40:24.376Z,21.40
2019-04-22T23:44:17.769Z,21.37
2019-04-22T23:46:19.761Z,21.35
2019-04-22T23:48:17.043Z,21.32
2019-04-22T23:50:26.469Z,21.30
2019-04-22T23:52:24.404Z,21.27
2019-04-22T23:54:35.108Z,21.25
2019-04-22T23:56:25.127Z,21.24
2019-04-22T23:58:41.696Z,21.27
